createdAt,value
2017-11-24T09:55:04.254Z,99.99
2017-11-24T09:55:32.893Z,99.99
2017-11-24T09:56:17.765Z,99.99
2017-11-24T09:56:46.258Z,99.99
2017-11-24T09:57:14.907Z,99.99
2017-11-24T09:57:43.478Z,99.99
2017-11-24T09:58:11.977Z,99.99
2017-11-24T09:58:40.468Z,99.99
2017-11-24T09:59:09.188Z,99.99
2017-11-24T09:59:37.705Z,99.99
2017-11-24T10:00:06.327Z,99.99
2017-11-24T10:00:34.944Z,99.99
2017-11-24T10:01:03.603Z,99.99
2017-11-24T10:01:32.036Z,99.99
2017-11-24T10:02:00.566Z,99.99
2017-11-24T10:02:29.201Z,99.99
2017-11-24T10:02:57.540Z,99.99
2017-11-24T10:03:26.189Z,99.99
2017-11-24T10:03:54.719Z,99.99
2017-11-24T10:04:23.322Z,99.99
2017-11-24T10:04:51.874Z,99.99
2017-11-24T10:05:20.299Z,99.99
2017-11-24T10:05:48.760Z,99.99
2017-11-24T10:06:17.287Z,99.99
2017-11-24T10:06:45.922Z,99.99
2017-11-24T10:07:14.569Z,99.99
2017-11-24T10:07:43.002Z,99.99
2017-11-24T10:08:11.481Z,99.99
2017-11-24T10:08:40.089Z,99.99
2017-11-24T10:09:08.635Z,99.99
2017-11-24T10:09:37.147Z,99.99
2017-11-24T10:10:05.867Z,99.99
2017-11-24T10:10:34.299Z,99.99
2017-11-24T10:11:02.830Z,99.99
2017-11-24T10:11:31.388Z,99.99
2017-11-24T10:12:00.008Z,99.99
2017-11-24T10:12:28.418Z,99.99
2017-11-24T10:12:56.837Z,99.99
2017-11-24T10:13:25.493Z,99.99
2017-11-24T10:13:53.785Z,99.99
2017-11-24T10:14:22.209Z,99.99
2017-11-24T10:14:50.737Z,99.99
2017-11-24T10:15:19.225Z,99.99
2017-11-24T10:15:47.774Z,99.99
2017-11-24T10:16:16.110Z,99.99
2017-11-24T10:16:44.528Z,99.99
2017-11-24T10:17:13.361Z,99.99
2017-11-24T10:17:41.991Z,99.99
2017-11-24T10:18:10.632Z,99.99
2017-11-24T10:18:39.142Z,99.99
2017-11-24T10:19:07.691Z,99.99
2017-11-24T10:19:36.316Z,99.99
2017-11-24T10:20:04.715Z,99.99
2017-11-24T10:20:33.343Z,99.99
2017-11-24T10:21:01.849Z,99.99
2017-11-24T10:21:30.454Z,99.99
2017-11-24T10:21:58.864Z,99.99
2017-11-24T10:22:27.247Z,99.99
2017-11-24T10:22:55.870Z,99.99
2017-11-24T10:23:24.480Z,99.99
2017-11-24T10:23:53.081Z,99.99
2017-11-24T10:24:21.629Z,99.99
2017-11-24T10:24:50.127Z,99.99
2017-11-24T10:25:18.906Z,99.99
2017-11-24T10:25:47.292Z,99.99
2017-11-24T10:26:15.777Z,99.99
2017-11-24T10:26:44.395Z,99.99
2017-11-24T10:27:12.823Z,99.99
2017-11-24T10:27:41.278Z,99.99
2017-11-24T10:28:09.843Z,99.99
2017-11-24T10:28:38.456Z,99.99
2017-11-24T10:29:07.021Z,99.99
2017-11-24T10:29:35.341Z,99.99
2017-11-24T10:30:03.765Z,99.99
2017-11-24T10:30:32.054Z,99.99
2017-11-24T10:31:00.476Z,99.99
2017-11-24T10:31:28.964Z,99.99
2017-11-24T10:31:57.413Z,99.99
2017-11-24T10:32:25.829Z,99.99
2017-11-24T10:32:54.439Z,99.99
2017-11-24T10:33:23.058Z,99.99
2017-11-24T10:33:51.669Z,99.99
2017-11-24T10:34:20.289Z,99.99
2017-11-24T10:34:48.908Z,99.99
2017-11-24T10:35:17.545Z,99.99
2017-11-24T10:35:46.220Z,99.99
2017-11-24T10:36:15.349Z,99.99
2017-11-24T10:36:43.928Z,99.99
2017-11-24T10:37:12.564Z,99.99
2017-11-24T10:37:41.181Z,99.99
2017-11-24T10:38:09.767Z,99.99
2017-11-24T10:38:38.208Z,99.99
2017-11-24T10:39:06.808Z,99.99
2017-11-24T10:39:35.329Z,99.99
2017-11-24T10:40:03.814Z,99.99
2017-11-24T10:40:32.554Z,99.99
2017-11-24T10:41:01.185Z,99.99
2017-11-24T10:41:29.615Z,99.99
2017-11-24T10:41:58.882Z,99.99
2017-11-24T10:42:27.258Z,99.99
2017-11-24T10:42:55.845Z,99.99
2017-11-24T10:43:24.366Z,99.99
2017-11-24T10:43:52.974Z,99.99
2017-11-24T10:44:21.625Z,99.99
2017-11-24T10:44:50.262Z,99.99
2017-11-24T10:45:18.883Z,99.99
2017-11-24T10:45:47.518Z,99.99
2017-11-24T10:46:16.184Z,99.99
2017-11-24T10:46:44.746Z,99.99
2017-11-24T10:47:13.164Z,99.99
2017-11-24T10:47:41.706Z,99.99
2017-11-24T10:48:10.328Z,99.99
2017-11-24T10:48:38.980Z,99.99
2017-11-24T10:49:07.495Z,99.99
2017-11-24T10:49:36.045Z,99.99
2017-11-24T10:50:04.272Z,99.99
2017-11-24T10:50:56.918Z,99.99
2017-11-24T10:51:25.357Z,99.99
2017-11-24T10:51:53.930Z,99.99
2017-11-24T10:52:22.338Z,99.99
2017-11-24T10:52:51.722Z,99.99
2017-11-24T10:53:20.160Z,99.99
2017-11-24T10:53:48.761Z,99.99
2017-11-24T10:54:17.279Z,99.99
2017-11-24T10:54:45.939Z,99.99
2017-11-24T10:55:14.413Z,99.99
2017-11-24T10:55:43.201Z,99.99
2017-11-24T10:56:11.705Z,99.99
2017-11-24T10:56:40.172Z,99.99
2017-11-24T10:57:08.793Z,99.99
2017-11-24T10:57:37.451Z,99.99
2017-11-24T10:58:06.108Z,99.99
2017-11-24T10:58:34.718Z,99.99
2017-11-24T10:59:03.345Z,99.99
2017-11-24T10:59:31.973Z,99.99
2017-11-24T11:00:00.589Z,99.99
2017-11-24T11:00:29.140Z,99.99
2017-11-24T11:00:57.653Z,99.99
2017-11-24T11:01:26.222Z,99.99
2017-11-24T11:01:54.691Z,99.99
2017-11-24T11:02:23.131Z,99.99
2017-11-24T11:02:51.665Z,99.99
2017-11-24T11:03:20.183Z,99.99
2017-11-24T11:03:48.518Z,99.99
2017-11-24T11:04:17.128Z,99.99
2017-11-24T11:04:45.762Z,99.99
2017-11-24T11:05:14.237Z,99.99
2017-11-24T11:05:42.844Z,99.99
2017-11-24T11:06:11.353Z,99.99
2017-11-24T11:06:39.960Z,99.99
2017-11-24T11:07:08.475Z,99.99
2017-11-24T11:07:36.990Z,99.99
2017-11-24T11:08:05.400Z,99.99
2017-11-24T11:08:33.990Z,99.99
2017-11-24T11:09:02.613Z,99.99
2017-11-24T11:09:31.027Z,99.99
2017-11-24T11:09:59.557Z,99.99
2017-11-24T11:10:28.105Z,99.99
2017-11-24T11:10:56.753Z,99.99
2017-11-24T11:11:25.381Z,99.99
2017-11-24T11:11:54.136Z,99.99
2017-11-24T11:12:23.113Z,99.99
2017-11-24T11:12:52.465Z,99.99
2017-11-24T11:13:20.972Z,99.99
2017-11-24T11:13:49.485Z,99.99
2017-11-24T11:14:18.119Z,99.99
2017-11-24T11:14:46.680Z,99.99
2017-11-24T11:15:15.347Z,99.99
2017-11-24T11:15:44.020Z,99.99
2017-11-24T11:16:12.555Z,99.99
2017-11-24T11:16:41.081Z,99.99
2017-11-24T11:17:09.598Z,99.99
2017-11-24T11:17:38.024Z,99.99
2017-11-24T11:18:06.669Z,99.99
2017-11-24T11:18:35.183Z,99.99
2017-11-24T11:19:03.689Z,99.99
2017-11-24T11:19:32.321Z,99.99
2017-11-24T11:20:00.883Z,99.99
2017-11-24T11:20:29.300Z,99.99
2017-11-24T11:20:57.872Z,99.99
2017-11-24T11:21:26.374Z,99.99
2017-11-24T11:21:54.929Z,99.99
2017-11-24T11:22:23.431Z,99.99
2017-11-24T11:22:51.913Z,99.99
2017-11-24T11:23:20.428Z,99.99
2017-11-24T11:23:49.064Z,99.99
2017-11-24T11:24:17.593Z,99.99
2017-11-24T11:24:46.204Z,99.99
2017-11-24T11:25:14.645Z,99.99
2017-11-24T11:25:43.181Z,99.99
2017-11-24T11:26:11.821Z,99.99
2017-11-24T11:26:40.456Z,99.99
2017-11-24T11:27:09.090Z,99.99
2017-11-24T11:27:37.663Z,99.99
2017-11-24T11:28:06.189Z,99.99
2017-11-24T11:28:34.662Z,99.99
2017-11-24T11:29:03.083Z,99.99
2017-11-24T11:29:31.618Z,99.99
2017-11-24T11:30:00.230Z,99.99
2017-11-24T11:30:28.633Z,99.99
2017-11-24T11:30:57.284Z,99.99
2017-11-24T11:31:25.892Z,99.99
2017-11-24T11:31:54.393Z,99.99
2017-11-24T11:32:22.840Z,99.99
2017-11-24T11:32:51.646Z,99.99
2017-11-24T11:33:20.207Z,99.99
2017-11-24T11:33:48.993Z,99.99
2017-11-24T11:34:17.578Z,99.99
2017-11-24T11:34:46.229Z,99.99
2017-11-24T11:35:14.746Z,99.99
2017-11-24T11:35:43.196Z,99.99
2017-11-24T11:36:11.933Z,99.99
2017-11-24T11:36:40.449Z,99.99
2017-11-24T11:37:08.853Z,99.99
2017-11-24T11:37:37.414Z,99.99
2017-11-24T11:38:05.978Z,99.99
2017-11-24T11:38:34.680Z,99.99
2017-11-24T11:39:03.277Z,99.99
2017-11-24T11:39:31.790Z,99.99
2017-11-24T11:40:00.418Z,99.99
2017-11-24T11:40:28.918Z,99.99
2017-11-24T11:40:57.439Z,99.99
2017-11-24T11:41:25.879Z,99.99
2017-11-24T11:41:54.438Z,99.99
2017-11-24T11:42:22.958Z,99.99
2017-11-24T11:42:51.182Z,99.99
2017-11-24T11:43:19.835Z,99.99
2017-11-24T11:43:48.484Z,99.99
2017-11-24T11:44:16.989Z,99.99
2017-11-24T11:44:45.523Z,99.99
2017-11-24T11:45:13.943Z,99.99
2017-11-24T11:45:42.576Z,99.99
2017-11-24T11:46:11.660Z,99.99
2017-11-24T11:46:40.093Z,99.99
2017-11-24T11:47:08.820Z,99.99
2017-11-24T11:47:37.442Z,99.99
2017-11-24T11:48:05.852Z,99.99
2017-11-24T11:48:34.482Z,99.99
2017-11-24T11:49:03.124Z,99.99
2017-11-24T11:49:31.737Z,99.99
2017-11-24T11:50:00.344Z,99.99
2017-11-24T11:50:28.748Z,99.99
2017-11-24T11:50:57.388Z,99.99
2017-11-24T11:51:25.849Z,99.99
2017-11-24T11:51:54.413Z,99.99
2017-11-24T11:52:22.917Z,98.2
2017-11-24T11:52:51.524Z,98.54
2017-11-24T11:53:20.231Z,99.55
2017-11-24T11:53:48.773Z,99.26
2017-11-24T11:54:17.221Z,98.78
2017-11-24T11:54:45.830Z,98.87
2017-11-24T11:55:14.466Z,98.58
2017-11-24T11:55:42.911Z,99.07
2017-11-24T11:56:11.504Z,98.58
2017-11-24T11:56:40.114Z,96.66
2017-11-24T11:57:08.760Z,97.04
2017-11-24T11:57:37.426Z,97.04
2017-11-24T11:58:06.045Z,97.62
2017-11-24T11:58:34.561Z,97.62
2017-11-24T11:59:03.383Z,98.2
2017-11-24T11:59:34.399Z,97.62
2017-11-24T12:00:03.772Z,98.68
2017-11-24T12:00:32.121Z,98.68
2017-11-24T12:01:00.612Z,98.58
2017-11-24T12:01:29.257Z,98.97
2017-11-24T12:01:57.777Z,98.68
2017-11-24T12:02:26.468Z,98
2017-11-24T12:02:55.140Z,98.05
2017-11-24T12:03:23.678Z,97.67
2017-11-24T12:03:52.579Z,96.99
2017-11-24T12:04:21.024Z,97.86
2017-11-24T12:04:49.520Z,98.73
2017-11-24T12:05:18.506Z,97.86
2017-11-24T12:05:47.129Z,97.19
2017-11-24T12:06:15.634Z,95.25
2017-11-24T12:06:43.977Z,95.4
2017-11-24T12:07:12.601Z,95.11
2017-11-24T12:07:41.052Z,95.3
2017-11-24T12:08:09.509Z,94.72
2017-11-24T12:08:38.074Z,94.34
2017-11-24T12:09:07.106Z,94.87
2017-11-24T12:09:35.732Z,94.38
2017-11-24T12:10:04.272Z,95.01
2017-11-24T12:10:33.185Z,95.4
2017-11-24T12:11:01.830Z,94.34
2017-11-24T12:11:30.345Z,93.76
2017-11-24T12:11:58.991Z,94.24
2017-11-24T12:12:27.728Z,94.43
2017-11-24T12:12:56.265Z,94.2
2017-11-24T12:13:24.670Z,94.62
2017-11-24T12:13:53.289Z,94.14
2017-11-24T12:14:21.975Z,94.53
2017-11-24T12:14:50.598Z,94.72
2017-11-24T12:15:19.114Z,93.37
2017-11-24T12:15:47.649Z,93.56
2017-11-24T12:16:16.168Z,93.56
2017-11-24T12:16:44.590Z,92.93
2017-11-24T12:17:13.432Z,92.16
2017-11-24T12:17:48.865Z,92.07
2017-11-24T12:18:17.455Z,91.19
2017-11-24T12:18:46.252Z,91.39
2017-11-24T12:19:14.755Z,91.19
2017-11-24T12:19:43.189Z,91
2017-11-24T12:20:11.851Z,90.61
2017-11-24T12:20:40.478Z,91.19
2017-11-24T12:21:08.990Z,91.49
2017-11-24T12:21:37.510Z,92.45
2017-11-24T12:22:05.941Z,90.61
2017-11-24T12:22:34.448Z,90.23
2017-11-24T12:23:02.785Z,90.61
2017-11-24T12:23:31.402Z,91.58
2017-11-24T12:24:00.022Z,91.67
2017-11-24T12:24:28.445Z,91.67
2017-11-24T12:24:56.708Z,91.39
2017-11-24T12:25:25.210Z,91.09
2017-11-24T12:25:53.772Z,90.42
2017-11-24T12:26:22.361Z,90.91
2017-11-24T12:26:50.963Z,90.42
2017-11-24T12:27:19.578Z,90.71
2017-11-24T12:27:48.190Z,91.29
2017-11-24T12:28:16.595Z,90.23
2017-11-24T12:28:45.020Z,90.13
2017-11-24T12:29:13.519Z,90.52
2017-11-24T12:29:42.136Z,90.91
2017-11-24T12:30:10.746Z,91.39
2017-11-24T12:30:39.248Z,91.87
2017-11-24T12:31:07.659Z,91.49
2017-11-24T12:31:36.142Z,92.07
2017-11-24T12:32:04.739Z,91.19
2017-11-24T12:32:33.357Z,90.17
2017-11-24T12:33:01.794Z,90.33
2017-11-24T12:33:30.368Z,90.33
2017-11-24T12:33:58.887Z,90.71
2017-11-24T12:34:27.498Z,90.81
2017-11-24T12:34:56.833Z,90.42
2017-11-24T12:35:25.277Z,90.71
2017-11-24T12:35:53.806Z,90.33
2017-11-24T12:36:22.310Z,90.42
2017-11-24T12:36:50.722Z,90.42
2017-11-24T12:37:19.589Z,91.49
2017-11-24T12:37:48.187Z,91.97
2017-11-24T12:38:17.240Z,93.32
2017-11-24T12:38:45.875Z,93.71
2017-11-24T12:39:14.377Z,91.82
2017-11-24T12:39:42.985Z,90.47
2017-11-24T12:40:11.746Z,90.37
2017-11-24T12:40:40.265Z,90.51
2017-11-24T12:41:08.727Z,90.9
2017-11-24T12:41:38.089Z,88.09
2017-11-24T12:42:06.523Z,87.07
2017-11-24T12:42:35.141Z,86.74
2017-11-24T12:43:04.180Z,88.33
2017-11-24T12:43:32.731Z,87.46
2017-11-24T12:44:01.256Z,86.2
2017-11-24T12:44:29.581Z,86.4
2017-11-24T12:44:58.872Z,86.63
2017-11-24T12:45:34.652Z,85.47
2017-11-24T12:46:03.184Z,85.66
2017-11-24T12:46:31.795Z,85.8
2017-11-24T12:47:00.300Z,84.35
2017-11-24T12:47:28.889Z,84.35
2017-11-24T12:47:58.016Z,84.06
2017-11-24T12:48:26.805Z,81.97
2017-11-24T12:48:55.344Z,81.97
2017-11-24T12:49:23.853Z,82.35
2017-11-24T12:49:52.693Z,81.2
2017-11-24T12:50:21.009Z,79.88
2017-11-24T12:50:49.495Z,79.97
2017-11-24T12:51:18.030Z,80.07
2017-11-24T12:51:46.551Z,80.17
2017-11-24T12:52:15.244Z,80.26
2017-11-24T12:52:43.700Z,80.17
2017-11-24T12:53:12.082Z,79.49
2017-11-24T12:53:40.406Z,80.17
2017-11-24T12:54:09.721Z,80.21
2017-11-24T12:54:38.337Z,79.72
2017-11-24T12:55:07.163Z,77.98
2017-11-24T12:55:35.810Z,78.33
2017-11-24T12:56:04.470Z,78.61
2017-11-24T12:56:33.012Z,79.1
2017-11-24T12:57:01.739Z,80.17
2017-11-24T12:57:30.172Z,80.36
2017-11-24T12:57:58.633Z,80.17
2017-11-24T12:58:27.335Z,80.36
2017-11-24T12:58:56.686Z,79.88
2017-11-24T12:59:25.168Z,80.55
2017-11-24T12:59:53.696Z,79.58
2017-11-24T13:00:22.138Z,78.71
2017-11-24T13:00:50.680Z,80.36
2017-11-24T13:01:19.244Z,80.07
2017-11-24T13:01:47.659Z,80.17
2017-11-24T13:02:16.672Z,78.61
2017-11-24T13:02:45.598Z,78.71
2017-11-24T13:03:14.188Z,78.81
2017-11-24T13:03:42.593Z,78.71
2017-11-24T13:04:11.029Z,79.24
2017-11-24T13:04:39.373Z,78.75
2017-11-24T13:05:07.988Z,79.33
2017-11-24T13:05:36.429Z,79.72
2017-11-24T13:06:05.025Z,79.43
2017-11-24T13:06:33.459Z,79.47
2017-11-24T13:07:02.270Z,78.89
2017-11-24T13:07:30.797Z,77.24
2017-11-24T13:07:59.251Z,78.05
2017-11-24T13:08:27.839Z,76.01
2017-11-24T13:08:56.460Z,74.75
2017-11-24T13:09:25.079Z,74.37
2017-11-24T13:09:53.598Z,75.04
2017-11-24T13:10:21.913Z,75.82
2017-11-24T13:10:50.538Z,74.65
2017-11-24T13:11:19.060Z,74.75
2017-11-24T13:11:47.565Z,74.85
2017-11-24T13:12:16.064Z,75.82
2017-11-24T13:12:44.681Z,76.01
2017-11-24T13:13:13.501Z,75.82
2017-11-24T13:13:42.014Z,74.95
2017-11-24T13:14:10.934Z,74.27
2017-11-24T13:14:39.361Z,75.14
2017-11-24T13:15:07.903Z,75.04
2017-11-24T13:15:36.216Z,74.85
2017-11-24T13:16:04.735Z,74.33
2017-11-24T13:16:33.157Z,74.23
2017-11-24T13:17:01.765Z,75.88
2017-11-24T13:17:30.296Z,76.27
2017-11-24T13:17:58.869Z,76.52
2017-11-24T13:18:27.506Z,77.29
2017-11-24T13:18:55.831Z,75.65
2017-11-24T13:19:24.469Z,75.16
2017-11-24T13:19:52.885Z,75.45
2017-11-24T13:20:21.310Z,75.65
2017-11-24T13:20:50.029Z,75.84
2017-11-24T13:21:18.567Z,76.72
2017-11-24T13:21:47.059Z,78.07
2017-11-24T13:22:15.568Z,77.01
2017-11-24T13:22:43.892Z,76.52
2017-11-24T13:23:12.465Z,76.62
2017-11-24T13:23:41.114Z,75.94
2017-11-24T13:24:09.650Z,75.98
2017-11-24T13:24:37.887Z,75.68
2017-11-24T13:25:06.320Z,76.07
2017-11-24T13:25:35.027Z,77.43
2017-11-24T13:26:03.727Z,75.34
2017-11-24T13:26:32.408Z,74.95
2017-11-24T13:27:00.920Z,74.75
2017-11-24T13:27:29.737Z,74.65
2017-11-24T13:27:58.452Z,75.04
2017-11-24T13:28:26.916Z,74.88
2017-11-24T13:28:55.800Z,73.04
2017-11-24T13:29:24.474Z,72.45
2017-11-24T13:29:53.127Z,73.33
2017-11-24T13:30:21.806Z,72.94
2017-11-24T13:30:50.318Z,73.52
2017-11-24T13:31:18.828Z,73.62
2017-11-24T13:31:47.232Z,73.58
2017-11-24T13:32:15.852Z,73.2
2017-11-24T13:32:44.435Z,73.1
2017-11-24T13:33:12.857Z,74.07
2017-11-24T13:33:41.447Z,74.23
2017-11-24T13:34:09.901Z,75.2
2017-11-24T13:34:38.445Z,76.46
2017-11-24T13:35:07.085Z,75.98
2017-11-24T13:35:35.588Z,75.78
2017-11-24T13:36:04.206Z,75.3
2017-11-24T13:36:32.857Z,74.97
2017-11-24T13:37:01.701Z,76.42
2017-11-24T13:37:30.333Z,77.39
2017-11-24T13:37:59.023Z,78.66
2017-11-24T13:38:27.616Z,77.11
2017-11-24T13:38:56.045Z,77.2
2017-11-24T13:39:24.411Z,78.07
2017-11-24T13:39:52.863Z,77.65
2017-11-24T13:40:21.396Z,77.94
2017-11-24T13:40:49.938Z,78.42
2017-11-24T13:41:18.500Z,78.61
2017-11-24T13:41:47.046Z,79.25
2017-11-24T13:42:16.007Z,80.03
2017-11-24T13:42:44.631Z,79.55
2017-11-24T13:43:13.255Z,80.42
2017-11-24T13:43:41.729Z,81.87
2017-11-24T13:44:10.232Z,81.58
2017-11-24T13:44:38.846Z,82.45
2017-11-24T13:45:07.427Z,81.97
2017-11-24T13:45:36.061Z,81.97
2017-11-24T13:46:19.033Z,80.9
2017-11-24T13:46:47.712Z,81.04
2017-11-24T13:47:16.216Z,81.39
2017-11-24T13:47:44.641Z,81.82
2017-11-24T13:48:13.278Z,80.65
2017-11-24T13:48:41.688Z,79.82
2017-11-24T13:49:10.334Z,79.88
2017-11-24T13:49:38.809Z,79.04
2017-11-24T13:50:07.385Z,78.27
2017-11-24T13:50:35.817Z,77.49
2017-11-24T13:51:07.504Z,79.91
2017-11-24T13:51:37.497Z,78.79
2017-11-24T13:52:06.100Z,79.47
2017-11-24T13:52:34.823Z,78.02
2017-11-24T13:53:03.583Z,76.95
2017-11-24T13:53:32.459Z,75.88
2017-11-24T13:54:01.011Z,75.1
2017-11-24T13:54:29.661Z,75.01
2017-11-24T13:54:58.051Z,75.01
2017-11-24T13:55:26.598Z,76.17
2017-11-24T13:55:55.034Z,75.98
2017-11-24T13:56:23.636Z,75.78
2017-11-24T13:56:52.050Z,76.95
2017-11-24T13:57:35.109Z,79.96
2017-11-24T13:58:03.761Z,79.18
2017-11-24T13:58:32.756Z,78.59
2017-11-24T13:59:01.191Z,76.98
2017-11-24T13:59:29.755Z,75.14
2017-11-24T13:59:58.271Z,74.85
2017-11-24T14:00:26.984Z,74.95
2017-11-24T14:00:55.596Z,75.24
2017-11-24T14:01:24.139Z,74.95
2017-11-24T14:01:52.630Z,76.89
2017-11-24T14:02:21.378Z,77.57
2017-11-24T14:02:49.954Z,78.15
2017-11-24T14:03:18.397Z,77.31
2017-11-24T14:03:47.744Z,75.04
2017-11-24T14:04:16.396Z,74.79
2017-11-24T14:04:44.706Z,76.15
2017-11-24T14:05:13.111Z,74.3
2017-11-24T14:05:41.754Z,73.52
2017-11-24T14:06:10.248Z,74.11
2017-11-24T14:06:38.936Z,75.14
2017-11-24T14:07:07.553Z,75.67
2017-11-24T14:07:36.014Z,76.6
2017-11-24T14:08:04.508Z,77.02
2017-11-24T14:08:32.941Z,78.19
2017-11-24T14:09:01.558Z,77.61
2017-11-24T14:09:30.102Z,77.06
2017-11-24T14:09:58.727Z,74.54
2017-11-24T14:10:27.096Z,74.54
2017-11-24T14:10:56.047Z,72.39
2017-11-24T14:11:24.429Z,72.88
2017-11-24T14:11:53.086Z,72.98
2017-11-24T14:12:21.883Z,73.46
2017-11-24T14:12:50.423Z,75.6
2017-11-24T14:13:18.869Z,74.73
2017-11-24T14:13:47.384Z,73.56
2017-11-24T14:14:15.827Z,74.54
2017-11-24T14:14:44.379Z,74.48
2017-11-24T14:15:12.857Z,74.86
2017-11-24T14:15:41.480Z,73.21
2017-11-24T14:16:10.109Z,72.04
2017-11-24T14:16:38.692Z,71.75
2017-11-24T14:17:07.341Z,71.17
2017-11-24T14:17:35.938Z,71.26
2017-11-24T14:18:04.589Z,71.66
2017-11-24T14:18:33.003Z,71.72
2017-11-24T14:19:01.535Z,71.81
2017-11-24T14:19:30.159Z,72.49
2017-11-24T14:19:58.716Z,73.85
2017-11-24T14:20:27.253Z,74.54
2017-11-24T14:20:55.933Z,73.08
2017-11-24T14:21:24.455Z,73.08
2017-11-24T14:21:53.016Z,74.92
2017-11-24T14:22:21.559Z,74.3
2017-11-24T14:22:50.177Z,75.18
2017-11-24T14:23:18.829Z,74.69
2017-11-24T14:23:47.370Z,73.56
2017-11-24T14:24:15.860Z,74.4
2017-11-24T14:24:44.512Z,73.43
2017-11-24T14:25:13.031Z,74.4
2017-11-24T14:25:41.460Z,73.91
2017-11-24T14:26:09.981Z,73.49
2017-11-24T14:26:38.518Z,74.56
2017-11-24T14:27:07.230Z,74.95
2017-11-24T14:27:35.768Z,76.21
2017-11-24T14:28:04.349Z,75.27
2017-11-24T14:28:32.848Z,76.73
2017-11-24T14:29:01.386Z,75.76
2017-11-24T14:29:30.755Z,77.7
2017-11-24T14:29:59.350Z,77.41
2017-11-24T14:30:27.782Z,77.31
2017-11-24T14:30:56.305Z,77.06
2017-11-24T14:31:24.841Z,75.31
2017-11-24T14:31:53.237Z,75.41
2017-11-24T14:32:21.762Z,75.31
2017-11-24T14:32:50.297Z,72.49
2017-11-24T14:33:18.718Z,72.69
2017-11-24T14:33:47.230Z,71.33
2017-11-24T14:34:15.840Z,72.72
2017-11-24T14:34:44.245Z,71.03
2017-11-24T14:35:13.703Z,70.84
2017-11-24T14:35:42.267Z,69.96
2017-11-24T14:36:10.768Z,70.26
2017-11-24T14:36:39.388Z,71.1
2017-11-24T14:37:11.903Z,73.62
2017-11-24T14:37:40.400Z,72.17
2017-11-24T14:38:09.113Z,72.17
2017-11-24T14:38:37.869Z,71.29
2017-11-24T14:39:06.281Z,71.39
2017-11-24T14:39:34.850Z,70.51
2017-11-24T14:40:03.341Z,70.42
2017-11-24T14:40:31.671Z,70.22
2017-11-24T14:41:00.207Z,71.68
2017-11-24T14:41:28.738Z,71
2017-11-24T14:41:57.119Z,71.2
2017-11-24T14:42:25.541Z,71.58
2017-11-24T14:42:54.172Z,71.29
2017-11-24T14:43:22.695Z,75.08
2017-11-24T14:43:51.212Z,74.4
2017-11-24T14:44:20.063Z,74.24
2017-11-24T14:44:48.749Z,76.97
2017-11-24T14:45:17.277Z,75.89
2017-11-24T14:45:45.924Z,74.54
2017-11-24T14:46:14.517Z,73.08
2017-11-24T14:46:42.931Z,74.86
2017-11-24T14:47:11.430Z,71.17
2017-11-24T14:47:39.975Z,70.78
2017-11-24T14:48:08.499Z,71.3
2017-11-24T14:48:36.829Z,66.73
2017-11-24T14:49:05.643Z,69.06
2017-11-24T14:49:33.970Z,68.57
2017-11-24T14:50:02.513Z,65.01
2017-11-24T14:50:31.093Z,64.04
2017-11-24T14:50:59.705Z,63.55
2017-11-24T14:51:28.214Z,64.91
2017-11-24T14:51:56.690Z,65.72
2017-11-24T14:52:25.333Z,66.21
2017-11-24T14:52:53.931Z,64.55
2017-11-24T14:53:22.614Z,62.9
2017-11-24T14:53:51.560Z,63.81
2017-11-24T14:54:20.227Z,63.61
2017-11-24T14:54:48.743Z,60.98
2017-11-24T14:55:17.311Z,60
2017-11-24T14:55:45.883Z,60.69
2017-11-24T14:56:14.434Z,63.61
2017-11-24T14:56:42.991Z,62.93
2017-11-24T14:57:11.606Z,61.86
2017-11-24T14:57:40.323Z,58.74
2017-11-24T14:58:08.869Z,60.88
2017-11-24T14:58:37.393Z,61.08
2017-11-24T14:59:05.872Z,61.18
2017-11-24T14:59:34.697Z,60.82
2017-11-24T15:00:03.253Z,60.62
2017-11-24T15:00:32.008Z,59.74
2017-11-24T15:01:01.046Z,57.6
2017-11-24T15:01:29.694Z,57.63
2017-11-24T15:01:58.337Z,57.73
2017-11-24T15:02:27.010Z,60.55
2017-11-24T15:02:55.638Z,59.97
2017-11-24T15:03:24.779Z,57.73
2017-11-24T15:03:53.379Z,56.68
2017-11-24T15:04:21.972Z,57.75
2017-11-24T15:04:50.479Z,56.2
2017-11-24T15:05:19.182Z,57.17
2017-11-24T15:05:47.643Z,56.97
2017-11-24T15:06:16.367Z,57.07
2017-11-24T15:06:44.898Z,57.17
2017-11-24T15:07:13.462Z,57.17
2017-11-24T15:07:42.009Z,56.68
2017-11-24T15:08:25.047Z,57.07
2017-11-24T15:08:53.693Z,55.51
2017-11-24T15:09:22.365Z,55.9
2017-11-24T15:09:51.006Z,55.71
2017-11-24T15:10:21.147Z,54.44
2017-11-24T15:10:51.312Z,55.8
2017-11-24T15:11:19.917Z,55.12
2017-11-24T15:11:48.383Z,57.75
2017-11-24T15:12:16.746Z,57.56
2017-11-24T15:12:45.190Z,56.68
2017-11-24T15:13:13.621Z,55.8
2017-11-24T15:13:42.068Z,54.34
2017-11-24T15:14:10.726Z,55.9
2017-11-24T15:14:39.356Z,55.32
2017-11-24T15:15:07.900Z,55.63
2017-11-24T15:15:36.541Z,56.2
2017-11-24T15:16:05.000Z,55.83
2017-11-24T15:16:33.508Z,56
2017-11-24T15:17:02.153Z,53.95
2017-11-24T15:17:30.772Z,53.46
2017-11-24T15:17:59.642Z,53.56
2017-11-24T15:18:28.041Z,54.83
2017-11-24T15:18:56.460Z,54.7
2017-11-24T15:19:24.983Z,56
2017-11-24T15:19:53.846Z,55.29
2017-11-24T15:20:22.680Z,55.58
2017-11-24T15:20:51.302Z,54.99
2017-11-24T15:21:19.761Z,57.24
2017-11-24T15:21:48.192Z,56.65
2017-11-24T15:22:17.117Z,55.29
2017-11-24T15:22:45.789Z,55.87
2017-11-24T15:23:14.473Z,57.43
2017-11-24T15:23:42.892Z,57.14
2017-11-24T15:24:11.430Z,56.85
2017-11-24T15:24:40.327Z,53.44
2017-11-24T15:25:09.000Z,53.73
2017-11-24T15:25:37.444Z,55.36
2017-11-24T15:26:06.022Z,57.5
2017-11-24T15:26:34.636Z,55.85
2017-11-24T15:27:03.334Z,55.75
2017-11-24T15:27:32.223Z,56.62
2017-11-24T15:28:00.833Z,59.64
2017-11-24T15:28:29.727Z,57.73
2017-11-24T15:29:00.792Z,56.65
2017-11-24T15:29:31.004Z,56.36
2017-11-24T15:29:59.582Z,55.97
2017-11-24T15:30:28.632Z,55.8
2017-11-24T15:30:57.987Z,56
2017-11-24T15:31:27.025Z,55.71
2017-11-24T15:31:55.718Z,55.02
2017-11-24T15:32:24.142Z,55.12
2017-11-24T15:32:52.824Z,54.14
2017-11-24T15:33:21.644Z,55.32
2017-11-24T15:33:50.451Z,54.83
2017-11-24T15:34:19.048Z,54.53
2017-11-24T15:34:47.737Z,53.95
2017-11-24T15:35:16.287Z,53.68
2017-11-24T15:35:44.906Z,54.95
2017-11-24T15:36:13.545Z,57.78
2017-11-24T15:36:42.549Z,58.27
2017-11-24T15:37:11.472Z,54.36
2017-11-24T15:37:39.980Z,54.1
2017-11-24T15:38:08.564Z,53.81
2017-11-24T15:38:37.663Z,56.74
2017-11-24T15:39:06.681Z,55.76
2017-11-24T15:39:35.161Z,55
2017-11-24T15:40:04.332Z,53.93
2017-11-24T15:40:33.090Z,51.78
2017-11-24T15:41:01.824Z,50.42
2017-11-24T15:41:30.937Z,50.51
2017-11-24T15:41:59.727Z,50.12
2017-11-24T15:42:28.961Z,50.32
2017-11-24T15:42:57.646Z,51
2017-11-24T15:43:26.910Z,51.68
2017-11-24T15:43:55.356Z,51.78
2017-11-24T15:44:38.134Z,51.22
2017-11-24T15:45:06.753Z,50.9
2017-11-24T15:45:35.070Z,50.24
2017-11-24T15:46:04.111Z,50.34
2017-11-24T15:46:33.490Z,49.95
2017-11-24T15:47:02.485Z,50.05
2017-11-24T15:47:32.027Z,50.44
2017-11-24T15:48:00.688Z,50.54
2017-11-24T15:48:29.169Z,49.07
2017-11-24T15:48:57.729Z,48.58
2017-11-24T15:49:26.096Z,47.7
2017-11-24T15:49:54.498Z,48.28
2017-11-24T15:50:23.423Z,48.09
2017-11-24T15:50:51.816Z,47.7
2017-11-24T15:51:20.323Z,47.21
2017-11-24T15:51:48.985Z,48.28
2017-11-24T15:52:17.673Z,49.07
2017-11-24T15:52:46.262Z,49.26
2017-11-24T15:53:15.836Z,50.54
2017-11-24T15:53:44.401Z,49.55
2017-11-24T15:54:12.985Z,49.24
2017-11-24T15:54:41.455Z,49.63
2017-11-24T15:55:09.951Z,49.33
2017-11-24T15:55:38.737Z,49.71
2017-11-24T15:56:07.650Z,50.49
2017-11-24T15:56:36.571Z,51.56
2017-11-24T15:57:04.971Z,53.32
2017-11-24T15:57:33.660Z,52.83
2017-11-24T15:58:02.865Z,52.8
2017-11-24T15:58:32.396Z,52.22
2017-11-24T15:59:00.977Z,53.32
2017-11-24T15:59:30.277Z,52.7
2017-11-24T15:59:59.066Z,51.66
2017-11-24T16:00:29.617Z,51.46
2017-11-24T16:00:58.517Z,51.66
2017-11-24T16:01:27.321Z,51.76
2017-11-24T16:01:56.100Z,53.03
2017-11-24T16:02:24.833Z,51.66
2017-11-24T16:02:53.645Z,51.07
2017-11-24T16:03:22.087Z,52.05
2017-11-24T16:03:50.858Z,52.54
2017-11-24T16:04:19.552Z,52.34
2017-11-24T16:04:48.072Z,50.46
2017-11-24T16:05:16.849Z,51.53
2017-11-24T16:05:45.481Z,53.68
2017-11-24T16:06:14.740Z,54.27
2017-11-24T16:06:43.740Z,52.9